createdAt,value
2024-05-09T00:01:12.933Z,6.50
2024-05-09T00:04:10.017Z,6.20
2024-05-09T00:07:07.080Z,6.30
2024-05-09T00:10:05.559Z,6.00
2024-05-09T00:13:04.821Z,5.90
2024-05-09T00:16:02.009Z,6.20
2024-05-09T00:18:59.073Z,6.40
2024-05-09T00:21:56.231Z,6.30
2024-05-09T00:24:53.208Z,6.10
2024-05-09T00:27:50.174Z,6.20
2024-05-09T00:30:47.162Z,6.30
2024-05-09T00:33:44.283Z,6.30
2024-05-09T00:36:41.504Z,6.10
2024-05-09T00:39:38.479Z,6.30
2024-05-09T00:42:38.636Z,6.40
2024-05-09T00:45:35.908Z,6.40
2024-05-09T00:48:34.561Z,6.40
2024-05-09T00:51:31.895Z,6.40
2024-05-09T00:54:29.687Z,6.10
2024-05-09T00:57:27.760Z,6.00
2024-05-09T01:00:31.578Z,6.10
2024-05-09T01:03:35.434Z,6.00
2024-05-09T01:06:32.662Z,5.70
2024-05-09T01:09:29.658Z,6.00
2024-05-09T01:12:26.794Z,6.00
2024-05-09T01:15:23.802Z,6.10
2024-05-09T01:18:21.213Z,6.10
2024-05-09T01:21:18.415Z,6.20
2024-05-09T01:24:15.467Z,6.00
2024-05-09T01:27:12.477Z,6.10
2024-05-09T01:30:16.940Z,6.10
2024-05-09T01:33:17.919Z,6.00
2024-05-09T01:36:15.341Z,5.90
2024-05-09T01:39:12.392Z,6.10
2024-05-09T01:42:09.407Z,6.10
2024-05-09T01:45:07.870Z,6.10
2024-05-09T01:48:05.677Z,6.00
2024-05-09T01:51:02.886Z,5.90
2024-05-09T01:53:59.955Z,5.60
2024-05-09T01:56:56.917Z,5.50
2024-05-09T01:59:53.898Z,5.50
2024-05-09T02:02:51.164Z,5.50
2024-05-09T02:05:52.140Z,5.40
2024-05-09T02:08:49.229Z,5.50
2024-05-09T02:11:48.158Z,5.50
2024-05-09T02:14:45.173Z,5.40
2024-05-09T02:17:42.337Z,5.20
2024-05-09T02:20:41.729Z,5.30
2024-05-09T02:23:39.352Z,5.30
2024-05-09T02:26:36.381Z,5.40
2024-05-09T02:29:34.712Z,5.50
2024-05-09T02:32:31.909Z,5.60
2024-05-09T02:35:29.134Z,5.60
2024-05-09T02:38:26.181Z,5.70
2024-05-09T02:41:23.215Z,5.60
2024-05-09T02:44:20.287Z,5.70
2024-05-09T02:47:17.384Z,5.50
2024-05-09T02:50:19.402Z,5.40
2024-05-09T02:53:23.201Z,5.20
2024-05-09T02:56:20.359Z,5.00
2024-05-09T02:59:17.396Z,5.00
2024-05-09T03:02:14.542Z,5.20
2024-05-09T03:05:11.879Z,5.00
2024-05-09T03:08:09.161Z,5.20
2024-05-09T03:11:06.621Z,5.50
2024-05-09T03:14:03.907Z,5.50
2024-05-09T03:17:01.012Z,5.30
2024-05-09T03:19:58.680Z,5.50
2024-05-09T03:22:57.000Z,5.30
2024-05-09T03:25:54.362Z,5.00
2024-05-09T03:28:51.505Z,5.10
2024-05-09T03:31:48.605Z,5.10
2024-05-09T03:34:45.751Z,5.20
2024-05-09T03:37:42.734Z,5.10
2024-05-09T03:40:50.763Z,5.00
2024-05-09T03:43:48.103Z,5.10
2024-05-09T03:46:45.188Z,5.00
2024-05-09T03:49:42.284Z,5.30
2024-05-09T03:52:39.342Z,5.40
2024-05-09T03:55:36.395Z,5.30
2024-05-09T03:58:34.036Z,5.30
2024-05-09T04:01:31.116Z,5.30
2024-05-09T04:04:28.414Z,5.40
2024-05-09T04:07:25.406Z,5.40
2024-05-09T04:10:30.240Z,5.30
2024-05-09T04:13:30.117Z,5.20
2024-05-09T04:16:27.104Z,5.00
2024-05-09T04:19:24.308Z,5.10
2024-05-09T04:22:21.427Z,5.30
2024-05-09T04:25:18.421Z,5.40
2024-05-09T04:28:15.469Z,5.40
2024-05-09T04:31:12.464Z,5.50
2024-05-09T04:34:09.626Z,5.50
2024-05-09T04:37:07.211Z,5.40
2024-05-09T04:40:07.021Z,5.50
2024-05-09T04:43:07.655Z,5.60
2024-05-09T04:46:04.855Z,5.60
2024-05-09T04:49:01.896Z,5.70
2024-05-09T04:51:59.066Z,5.70
2024-05-09T04:54:58.520Z,6.10
2024-05-09T04:57:55.911Z,6.30
2024-05-09T05:00:52.959Z,6.30
2024-05-09T05:03:50.074Z,6.30
2024-05-09T05:06:47.148Z,6.40
2024-05-09T05:09:44.131Z,6.40
2024-05-09T05:12:59.487Z,6.40
2024-05-09T05:15:57.768Z,6.50
2024-05-09T05:18:55.586Z,6.50
2024-05-09T05:21:52.602Z,6.60
2024-05-09T05:24:49.551Z,6.80
2024-05-09T05:27:46.535Z,6.80
2024-05-09T05:30:43.729Z,6.90
2024-05-09T05:33:41.008Z,6.80
2024-05-09T05:36:38.117Z,6.80
2024-05-09T05:39:35.172Z,6.90
2024-05-09T05:42:32.229Z,7.00
2024-05-09T05:45:29.227Z,7.10
2024-05-09T05:48:26.496Z,7.20
2024-05-09T05:51:23.597Z,7.20
2024-05-09T05:54:23.731Z,7.30
2024-05-09T05:57:20.841Z,7.50
2024-05-09T06:00:28.584Z,7.60
2024-05-09T06:03:29.488Z,7.70
2024-05-09T06:06:26.536Z,7.70
2024-05-09T06:09:23.510Z,7.80
2024-05-09T06:12:20.757Z,7.90
2024-05-09T06:15:17.783Z,8.00
2024-05-09T06:18:15.110Z,8.10
2024-05-09T06:21:12.336Z,8.20
2024-05-09T06:24:09.358Z,8.30
2024-05-09T06:27:06.388Z,8.40
2024-05-09T06:30:05.209Z,8.40
2024-05-09T06:33:02.352Z,8.60
2024-05-09T06:35:59.644Z,8.70
2024-05-09T06:38:56.638Z,8.80
2024-05-09T06:41:53.661Z,9.00
2024-05-09T06:44:50.670Z,9.10
2024-05-09T06:47:47.725Z,9.30
2024-05-09T06:50:45.452Z,9.30
2024-05-09T06:53:42.596Z,9.50
2024-05-09T06:56:39.654Z,9.70
2024-05-09T06:59:36.750Z,9.80
2024-05-09T07:02:33.956Z,10.00
2024-05-09T07:05:31.066Z,10.10
2024-05-09T07:08:28.077Z,10.30
2024-05-09T07:11:25.179Z,10.50
2024-05-09T07:14:22.231Z,10.60
2024-05-09T07:17:20.046Z,11.00
2024-05-09T07:20:23.629Z,11.00
2024-05-09T07:23:29.066Z,11.10
2024-05-09T07:26:26.149Z,11.30
2024-05-09T07:29:23.251Z,11.60
2024-05-09T07:32:20.743Z,11.70
2024-05-09T07:35:17.886Z,11.70
2024-05-09T07:38:15.092Z,11.80
2024-05-09T07:41:12.263Z,11.90
2024-05-09T07:44:09.327Z,11.90
2024-05-09T07:48:14.472Z,11.90
2024-05-09T07:53:39.551Z,12.00
2024-05-09T07:56:40.401Z,12.20
2024-05-09T07:59:38.897Z,12.40
2024-05-09T08:02:35.940Z,12.30
2024-05-09T08:05:33.067Z,12.40
2024-05-09T08:08:30.121Z,12.50
2024-05-09T08:11:27.197Z,12.60
2024-05-09T08:14:24.200Z,12.70
2024-05-09T08:17:21.270Z,12.90
2024-05-09T08:20:26.831Z,12.90
2024-05-09T08:23:28.908Z,13.00
2024-05-09T08:26:26.158Z,13.10
2024-05-09T08:29:23.146Z,13.30
2024-05-09T08:32:20.291Z,13.70
2024-05-09T08:35:17.313Z,13.80
2024-05-09T08:38:14.350Z,13.70
2024-05-09T08:41:15.325Z,13.70
2024-05-09T08:44:12.432Z,13.60
2024-05-09T08:47:10.710Z,13.70
2024-05-09T08:50:20.235Z,13.80
2024-05-09T08:53:26.033Z,13.70
2024-05-09T08:56:28.441Z,13.80
2024-05-09T08:59:36.705Z,13.80
2024-05-09T09:02:37.471Z,13.70
2024-05-09T09:05:40.031Z,13.60
2024-05-09T09:08:40.438Z,13.60
2024-05-09T09:11:37.469Z,13.60
2024-05-09T09:14:34.441Z,14.50
2024-05-09T09:17:31.453Z,15.20
2024-05-09T09:20:35.932Z,15.90
2024-05-09T09:23:34.117Z,16.10
2024-05-09T09:26:32.407Z,15.70
2024-05-09T09:29:30.979Z,15.30
2024-05-09T09:32:29.280Z,15.20
2024-05-09T09:35:28.915Z,15.80
2024-05-09T09:38:30.123Z,15.50
2024-05-09T09:41:31.476Z,16.20
2024-05-09T09:44:30.176Z,16.90
2024-05-09T09:47:28.171Z,17.90
2024-05-09T09:50:33.352Z,18.80
2024-05-09T09:53:33.335Z,18.50
2024-05-09T09:56:32.536Z,19.90
2024-05-09T09:59:34.832Z,19.90
2024-05-09T10:02:32.059Z,19.70
2024-05-09T10:05:30.527Z,18.90
2024-05-09T10:08:28.778Z,18.90
2024-05-09T10:11:29.660Z,19.40
2024-05-09T10:14:26.728Z,20.50
2024-05-09T10:17:23.856Z,20.10
2024-05-09T10:20:24.772Z,20.50
2024-05-09T10:23:36.219Z,21.10
2024-05-09T10:26:37.853Z,20.20
2024-05-09T10:29:34.874Z,19.60
2024-05-09T10:32:39.872Z,19.90
2024-05-09T10:35:36.891Z,20.40
2024-05-09T10:38:34.322Z,20.30
2024-05-09T10:41:31.317Z,20.70
2024-05-09T10:44:28.297Z,21.30
2024-05-09T10:47:25.977Z,21.60
2024-05-09T10:50:28.516Z,21.80
2024-05-09T10:53:29.012Z,22.00
2024-05-09T10:56:26.338Z,21.70
2024-05-09T10:59:23.311Z,21.60
2024-05-09T11:02:20.691Z,21.90
2024-05-09T11:05:17.990Z,22.60
2024-05-09T11:08:15.778Z,22.90
2024-05-09T11:11:13.255Z,22.80
2024-05-09T11:14:13.779Z,23.00
2024-05-09T11:17:10.801Z,22.50
2024-05-09T11:20:13.810Z,22.40
2024-05-09T11:23:18.319Z,22.70
2024-05-09T11:26:17.204Z,22.60
2024-05-09T11:29:17.100Z,23.00
2024-05-09T11:32:16.642Z,22.40
2024-05-09T11:35:13.664Z,22.20
2024-05-09T11:38:10.877Z,22.30
2024-05-09T11:41:08.277Z,21.90
2024-05-09T11:44:05.343Z,21.40
2024-05-09T11:47:04.966Z,21.50
2024-05-09T11:50:02.235Z,21.80
2024-05-09T11:52:59.348Z,22.60
2024-05-09T11:55:56.433Z,23.00
2024-05-09T11:58:53.696Z,23.40
2024-05-09T12:01:51.807Z,23.70
2024-05-09T12:04:49.920Z,23.10
2024-05-09T12:07:47.174Z,23.10
2024-05-09T12:10:44.275Z,23.20
2024-05-09T12:13:41.379Z,23.50
2024-05-09T12:16:38.654Z,23.10
2024-05-09T12:19:36.559Z,23.70
2024-05-09T12:22:33.554Z,23.20
2024-05-09T12:25:30.657Z,22.30
2024-05-09T12:28:27.672Z,22.40
2024-05-09T12:31:24.874Z,23.60
2024-05-09T12:34:22.069Z,23.70
2024-05-09T12:37:19.183Z,23.00
2024-05-09T12:40:23.158Z,23.10
2024-05-09T12:43:28.522Z,22.90
2024-05-09T12:46:25.766Z,22.30
2024-05-09T12:49:24.479Z,23.00
2024-05-09T12:52:21.694Z,23.10
2024-05-09T12:55:18.807Z,22.80
2024-05-09T12:58:19.712Z,24.00
2024-05-09T13:01:16.924Z,24.50
2024-05-09T13:04:14.128Z,24.80
2024-05-09T13:07:11.362Z,24.50
2024-05-09T13:10:13.734Z,25.30
2024-05-09T13:13:13.415Z,24.30
2024-05-09T13:16:10.653Z,22.30
2024-05-09T13:19:08.299Z,21.90
2024-05-09T13:22:05.410Z,21.10
2024-05-09T13:25:02.497Z,22.00
2024-05-09T13:27:59.732Z,23.30
2024-05-09T13:30:56.799Z,25.00
2024-05-09T13:33:53.918Z,25.30
2024-05-09T13:36:51.113Z,25.60
2024-05-09T13:39:48.288Z,24.90
2024-05-09T13:42:47.579Z,24.70
2024-05-09T13:45:45.678Z,24.90
2024-05-09T13:48:42.839Z,23.00
2024-05-09T13:51:39.976Z,23.30
2024-05-09T13:54:37.056Z,22.70
2024-05-09T13:57:34.187Z,23.60
2024-05-09T14:00:42.166Z,25.00
2024-05-09T14:03:44.673Z,25.20
2024-05-09T14:06:41.961Z,24.90
2024-05-09T14:09:39.033Z,25.50
2024-05-09T14:12:36.062Z,24.10
2024-05-09T14:15:33.124Z,24.20
2024-05-09T14:18:30.260Z,23.90
2024-05-09T14:21:27.328Z,22.00
2024-05-09T14:24:24.311Z,21.70
2024-05-09T14:27:21.321Z,22.00
2024-05-09T14:30:26.254Z,22.20
2024-05-09T14:33:31.354Z,21.70
2024-05-09T14:36:28.661Z,21.10
2024-05-09T14:39:25.647Z,21.30
2024-05-09T14:42:22.744Z,21.20
2024-05-09T14:45:19.711Z,20.60
2024-05-09T14:48:17.216Z,21.00
2024-05-09T14:51:14.373Z,21.20
2024-05-09T14:54:11.381Z,22.20
2024-05-09T14:57:08.385Z,22.50
2024-05-09T15:00:09.118Z,22.40
2024-05-09T15:03:11.227Z,21.90
2024-05-09T15:06:08.434Z,21.80
2024-05-09T15:09:07.653Z,20.60
2024-05-09T15:12:05.064Z,20.00
2024-05-09T15:15:02.072Z,19.70
2024-05-09T15:17:59.777Z,19.30
2024-05-09T15:20:57.530Z,19.40
2024-05-09T15:23:54.593Z,19.30
2024-05-09T15:26:51.583Z,19.10
2024-05-09T15:29:48.575Z,18.90
2024-05-09T15:32:45.641Z,18.70
2024-05-09T15:35:42.772Z,19.00
2024-05-09T15:38:39.843Z,19.40
2024-05-09T15:41:36.882Z,20.10
2024-05-09T15:44:35.258Z,20.10
2024-05-09T15:47:34.602Z,20.70
2024-05-09T15:50:37.462Z,22.20
2024-05-09T15:53:37.592Z,22.70
2024-05-09T15:56:34.588Z,22.80
2024-05-09T15:59:31.733Z,22.80
2024-05-09T16:02:28.906Z,22.60
2024-05-09T16:05:26.004Z,22.90
2024-05-09T16:08:23.434Z,22.60
2024-05-09T16:11:21.071Z,23.20
2024-05-09T16:14:19.010Z,22.80
2024-05-09T16:17:16.327Z,22.70
2024-05-09T16:20:18.309Z,22.40
2024-05-09T16:23:22.827Z,22.10
2024-05-09T16:26:19.815Z,22.60
2024-05-09T16:29:16.849Z,22.50
2024-05-09T16:32:13.874Z,22.30
2024-05-09T16:35:10.857Z,21.80
2024-05-09T16:38:07.901Z,21.60
2024-05-09T16:41:05.046Z,22.30
2024-05-09T16:44:03.174Z,21.90
2024-05-09T16:47:00.521Z,22.00
2024-05-09T16:49:57.616Z,21.80
2024-05-09T16:52:54.614Z,21.50
2024-05-09T16:55:52.300Z,21.30
2024-05-09T16:58:49.521Z,21.90
2024-05-09T17:01:46.634Z,21.60
2024-05-09T17:04:43.834Z,21.30
2024-05-09T17:07:41.258Z,21.00
2024-05-09T17:10:38.488Z,21.00
2024-05-09T17:13:39.242Z,20.50
2024-05-09T17:16:36.359Z,20.90
2024-05-09T17:19:33.545Z,20.00
2024-05-09T17:22:31.735Z,19.60
2024-05-09T17:25:29.132Z,19.10
2024-05-09T17:28:26.438Z,19.90
2024-05-09T17:31:23.579Z,19.80
2024-05-09T17:34:20.765Z,19.40
2024-05-09T17:37:18.317Z,19.60
2024-05-09T17:40:17.340Z,19.30
2024-05-09T17:43:18.059Z,19.10
2024-05-09T17:46:15.178Z,19.00
2024-05-09T17:49:12.355Z,18.60
2024-05-09T17:52:09.538Z,18.20
2024-05-09T17:55:07.840Z,17.80
2024-05-09T17:58:05.937Z,17.30
2024-05-09T18:01:03.183Z,17.00
2024-05-09T18:04:00.394Z,16.90
2024-05-09T18:06:57.631Z,16.80
2024-05-09T18:09:54.672Z,16.60
2024-05-09T18:12:51.722Z,16.60
2024-05-09T18:15:48.810Z,16.60
2024-05-09T18:18:46.364Z,16.80
2024-05-09T18:21:43.405Z,16.50
2024-05-09T18:24:40.420Z,16.20
2024-05-09T18:27:37.628Z,16.10
2024-05-09T18:30:36.702Z,15.70
2024-05-09T18:33:34.695Z,15.70
2024-05-09T18:36:31.862Z,15.70
2024-05-09T18:39:28.894Z,15.60
2024-05-09T18:42:25.892Z,15.80
2024-05-09T18:45:22.866Z,15.60
2024-05-09T18:48:21.817Z,15.20
2024-05-09T18:51:19.296Z,14.80
2024-05-09T18:54:16.389Z,14.60
2024-05-09T18:57:13.357Z,14.50
2024-05-09T19:00:16.121Z,14.40
2024-05-09T19:03:20.607Z,14.30
2024-05-09T19:06:19.750Z,14.30
2024-05-09T19:09:18.802Z,14.20
2024-05-09T19:12:16.925Z,14.40
2024-05-09T19:15:13.928Z,14.40
2024-05-09T19:18:15.261Z,14.20
2024-05-09T19:21:14.328Z,13.90
2024-05-09T19:24:11.330Z,13.80
2024-05-09T19:27:08.328Z,13.60
2024-05-09T19:30:13.913Z,13.50
2024-05-09T19:33:15.168Z,13.30
2024-05-09T19:36:12.487Z,13.20
2024-05-09T19:39:09.666Z,13.70
2024-05-09T19:42:06.796Z,13.80
2024-05-09T19:45:04.304Z,13.60
2024-05-09T19:48:01.721Z,13.60
2024-05-09T19:50:59.088Z,13.50
2024-05-09T19:53:56.307Z,13.20
2024-05-09T19:56:55.113Z,13.00
2024-05-09T19:59:52.526Z,12.90
2024-05-09T20:02:49.718Z,12.70
2024-05-09T20:05:47.468Z,12.50
2024-05-09T20:08:44.756Z,12.60
2024-05-09T20:11:41.932Z,12.80
2024-05-09T20:14:39.095Z,12.70
2024-05-09T20:17:36.341Z,12.90
2024-05-09T20:20:39.350Z,12.70
2024-05-09T20:23:39.637Z,12.40
2024-05-09T20:26:36.758Z,12.40
2024-05-09T20:29:34.033Z,12.50
2024-05-09T20:32:31.208Z,12.40
2024-05-09T20:35:32.060Z,12.70
2024-05-09T20:38:29.400Z,12.90
2024-05-09T20:41:26.518Z,12.60
2024-05-09T20:44:23.629Z,12.50
2024-05-09T20:47:20.731Z,12.80
2024-05-09T20:50:27.872Z,13.10
2024-05-09T20:53:32.845Z,12.90
2024-05-09T20:56:29.970Z,12.50
2024-05-09T20:59:27.044Z,12.60
2024-05-09T21:02:24.256Z,12.70
2024-05-09T21:05:21.540Z,12.40
2024-05-09T21:08:18.669Z,12.30
2024-05-09T21:11:15.772Z,12.40
2024-05-09T21:14:12.826Z,12.00
2024-05-09T21:17:10.052Z,12.20
2024-05-09T21:20:14.207Z,12.50
2024-05-09T21:23:14.369Z,12.40
2024-05-09T21:26:11.951Z,11.70
2024-05-09T21:29:08.938Z,11.90
2024-05-09T21:32:06.284Z,11.90
2024-05-09T21:35:03.552Z,12.10
2024-05-09T21:38:00.791Z,11.70
2024-05-09T21:40:58.003Z,11.50
2024-05-09T21:43:55.331Z,11.10
2024-05-09T21:46:52.383Z,11.00
2024-05-09T21:49:49.498Z,10.90
2024-05-09T21:52:46.745Z,11.00
2024-05-09T21:55:44.172Z,10.90
2024-05-09T21:58:41.309Z,11.20
2024-05-09T22:01:40.071Z,11.20
2024-05-09T22:04:37.386Z,11.10
2024-05-09T22:07:34.498Z,11.30
2024-05-09T22:10:34.926Z,11.40
2024-05-09T22:13:34.086Z,11.30
2024-05-09T22:16:31.912Z,11.10
2024-05-09T22:19:29.956Z,11.00
2024-05-09T22:22:27.139Z,10.80
2024-05-09T22:25:26.623Z,11.00
2024-05-09T22:28:25.167Z,11.10
2024-05-09T22:31:22.699Z,11.00
2024-05-09T22:34:20.038Z,10.90
2024-05-09T22:37:17.440Z,10.70
2024-05-09T22:40:23.865Z,10.50
2024-05-09T22:43:26.366Z,10.70
2024-05-09T22:46:23.664Z,10.80
2024-05-09T22:49:20.906Z,10.70
2024-05-09T22:52:18.033Z,10.60
2024-05-09T22:55:15.233Z,10.50
2024-05-09T22:58:12.577Z,10.60
2024-05-09T23:01:15.434Z,10.40
2024-05-09T23:04:12.764Z,10.40
2024-05-09T23:07:10.050Z,10.30
2024-05-09T23:10:13.360Z,10.10
2024-05-09T23:13:14.720Z,9.90
2024-05-09T23:16:11.961Z,9.80
2024-05-09T23:19:09.855Z,10.00
2024-05-09T23:22:07.034Z,9.60
2024-05-09T23:25:04.377Z,10.00
2024-05-09T23:28:01.676Z,10.00
2024-05-09T23:30:59.122Z,10.20
2024-05-09T23:33:56.596Z,10.10
2024-05-09T23:36:53.835Z,10.20
2024-05-09T23:39:50.945Z,10.20
2024-05-09T23:42:48.234Z,10.00
2024-05-09T23:45:45.505Z,10.20
2024-05-09T23:48:42.613Z,9.80
2024-05-09T23:51:39.776Z,9.50
2024-05-09T23:54:36.961Z,9.60
2024-05-09T23:57:34.109Z,9.40
